createdAt,value
2018-01-15T00:00:26.444Z,94562.41
2018-01-15T00:02:55.165Z,94562.30
2018-01-15T00:05:22.887Z,94566.44
2018-01-15T00:07:50.731Z,94559.51
2018-01-15T00:10:18.520Z,94555.95
2018-01-15T00:12:46.185Z,94547.86
2018-01-15T00:15:14.005Z,94554.23
2018-01-15T00:17:41.829Z,94559.22
2018-01-15T00:20:09.484Z,94549.84
2018-01-15T00:22:37.233Z,94547.83
2018-01-15T00:25:04.919Z,94545.36
2018-01-15T00:27:32.670Z,94550.47
2018-01-15T00:30:00.422Z,94545.72
2018-01-15T00:32:28.125Z,94543.89
2018-01-15T00:34:55.834Z,94552.41
2018-01-15T00:37:23.715Z,94546.02
2018-01-15T00:39:51.478Z,94543.00
2018-01-15T00:42:19.288Z,94554.66
2018-01-15T00:44:46.950Z,94551.30
2018-01-15T00:47:15.638Z,94547.44
2018-01-15T00:49:43.365Z,94549.43
2018-01-15T00:52:11.071Z,94556.30
2018-01-15T00:54:38.871Z,94555.83
2018-01-15T00:57:06.555Z,94552.65
2018-01-15T00:59:34.286Z,94550.33
2018-01-15T01:02:02.011Z,94550.23
2018-01-15T01:04:29.670Z,94560.92
2018-01-15T01:06:57.359Z,94554.40
2018-01-15T01:09:25.117Z,94556.34
2018-01-15T01:11:52.834Z,94555.77
2018-01-15T01:14:20.599Z,94556.23
2018-01-15T01:16:48.254Z,94550.09
2018-01-15T01:19:15.994Z,94548.27
2018-01-15T01:21:43.752Z,94553.36
2018-01-15T01:24:11.445Z,94548.81
2018-01-15T01:26:39.189Z,94543.49
2018-01-15T01:29:06.919Z,94543.99
2018-01-15T01:31:34.609Z,94537.49
2018-01-15T01:34:02.345Z,94542.92
2018-01-15T01:36:30.015Z,94545.76
2018-01-15T01:38:57.791Z,94545.95
2018-01-15T01:41:26.394Z,94540.38
2018-01-15T01:43:54.116Z,94537.09
2018-01-15T01:46:21.819Z,94537.67
2018-01-15T01:48:59.394Z,94538.66
2018-01-15T01:51:27.099Z,94539.55
2018-01-15T01:53:54.789Z,94537.03
2018-01-15T01:56:22.474Z,94540.03
2018-01-15T01:58:50.183Z,94538.77
2018-01-15T02:01:17.925Z,94536.55
2018-01-15T02:03:45.671Z,94536.00
2018-01-15T02:06:13.419Z,94536.55
2018-01-15T02:08:41.063Z,94537.27
2018-01-15T02:11:08.770Z,94539.96
2018-01-15T02:13:36.500Z,94540.70
2018-01-15T02:16:04.177Z,94543.09
2018-01-15T02:18:31.908Z,94542.05
2018-01-15T02:20:59.706Z,94534.20
2018-01-15T02:23:27.365Z,94527.92
2018-01-15T02:25:55.118Z,94528.48
2018-01-15T02:28:22.816Z,94537.08
2018-01-15T02:30:50.566Z,94538.28
2018-01-15T02:33:18.366Z,94532.23
2018-01-15T02:35:46.055Z,94528.14
2018-01-15T02:38:13.778Z,94534.51
2018-01-15T02:40:41.456Z,94542.25
2018-01-15T02:43:10.035Z,94531.08
2018-01-15T02:45:37.786Z,94525.64
2018-01-15T02:48:05.678Z,94540.84
2018-01-15T02:50:33.343Z,94541.59
2018-01-15T02:53:01.085Z,94531.34
2018-01-15T02:55:29.265Z,94536.05
2018-01-15T02:57:56.948Z,94536.92
2018-01-15T03:00:24.691Z,94534.81
2018-01-15T03:02:52.437Z,94534.03
2018-01-15T03:05:20.190Z,94528.73
2018-01-15T03:07:47.979Z,94532.19
2018-01-15T03:10:15.673Z,94531.84
2018-01-15T03:12:43.363Z,94529.35
2018-01-15T03:15:11.150Z,94524.23
2018-01-15T03:17:38.811Z,94525.67
2018-01-15T03:20:06.523Z,94523.59
2018-01-15T03:22:34.271Z,94520.48
2018-01-15T03:25:01.942Z,94524.30
2018-01-15T03:27:29.697Z,94521.27
2018-01-15T03:29:57.396Z,94521.01
2018-01-15T03:32:25.191Z,94516.72
2018-01-15T03:34:52.859Z,94519.53
2018-01-15T03:37:20.604Z,94514.03
2018-01-15T03:39:48.323Z,94517.20
2018-01-15T03:42:16.013Z,94516.86
2018-01-15T03:44:43.754Z,94513.43
2018-01-15T03:47:11.429Z,94512.51
2018-01-15T03:49:39.238Z,94507.86
2018-01-15T03:52:06.938Z,94502.53
2018-01-15T03:54:34.629Z,94497.69
2018-01-15T03:57:02.380Z,94509.12
2018-01-15T03:59:30.135Z,94515.19
2018-01-15T04:01:57.938Z,94513.29
2018-01-15T04:04:25.622Z,94508.23
2018-01-15T04:06:53.344Z,94512.23
2018-01-15T04:09:21.065Z,94512.84
2018-01-15T04:11:48.812Z,94510.14
2018-01-15T04:14:16.549Z,94507.73
2018-01-15T04:16:44.299Z,94508.05
2018-01-15T04:19:12.040Z,94506.22
2018-01-15T04:21:39.709Z,94506.74
2018-01-15T04:24:07.456Z,94504.02
2018-01-15T04:26:35.156Z,94505.52
2018-01-15T04:29:02.861Z,94506.93
2018-01-15T04:31:30.635Z,94505.98
2018-01-15T04:33:58.387Z,94507.86
2018-01-15T04:36:26.228Z,94507.43
2018-01-15T04:38:53.927Z,94509.12
2018-01-15T04:41:21.684Z,94507.36
2018-01-15T04:43:49.409Z,94501.47
2018-01-15T04:46:17.123Z,94508.91
2018-01-15T04:48:44.833Z,94513.24
2018-01-15T04:51:12.578Z,94515.16
2018-01-15T04:53:40.254Z,94511.70
2018-01-15T04:56:07.960Z,94508.89
2018-01-15T04:58:35.745Z,94510.84
2018-01-15T05:01:03.455Z,94508.05
2018-01-15T05:03:31.269Z,94498.00
2018-01-15T05:05:58.976Z,94505.18
2018-01-15T05:08:26.725Z,94511.68
2018-01-15T05:10:54.464Z,94500.44
2018-01-15T05:13:22.296Z,94504.11
2018-01-15T05:15:50.007Z,94509.14
2018-01-15T05:18:17.772Z,94505.38
2018-01-15T05:20:45.495Z,94513.37
2018-01-15T05:23:13.275Z,94506.50
2018-01-15T05:25:41.037Z,94506.10
2018-01-15T05:28:08.771Z,94516.20
2018-01-15T05:30:36.552Z,94515.98
2018-01-15T05:33:04.244Z,94515.48
2018-01-15T05:35:31.995Z,94513.16
2018-01-15T05:37:59.741Z,94513.41
2018-01-15T05:40:27.568Z,94508.13
2018-01-15T05:42:55.257Z,94519.81
2018-01-15T05:45:23.006Z,94517.59
2018-01-15T05:47:50.774Z,94518.11
2018-01-15T05:50:18.522Z,94517.66
2018-01-15T05:52:46.454Z,94514.64
2018-01-15T05:55:14.136Z,94512.41
2018-01-15T05:57:41.980Z,94515.77
2018-01-15T06:00:09.727Z,94509.60
2018-01-15T06:02:37.452Z,94510.95
2018-01-15T06:05:05.113Z,94519.86
2018-01-15T06:07:32.849Z,94512.53
2018-01-15T06:10:00.613Z,94517.45
2018-01-15T06:12:29.350Z,94517.64
2018-01-15T06:14:57.068Z,94516.44
2018-01-15T06:17:24.765Z,94515.30
2018-01-15T06:19:52.582Z,94507.38
2018-01-15T06:22:20.307Z,94511.92
2018-01-15T06:24:48.008Z,94518.53
2018-01-15T06:27:15.730Z,94515.89
2018-01-15T06:29:43.434Z,94511.99
2018-01-15T06:32:11.145Z,94514.08
2018-01-15T06:34:38.867Z,94515.84
2018-01-15T06:37:06.609Z,94523.78
2018-01-15T06:39:34.319Z,94526.34
2018-01-15T06:42:02.163Z,94523.91
2018-01-15T06:44:29.858Z,94524.98
2018-01-15T06:46:57.584Z,94528.75
2018-01-15T06:49:25.315Z,94529.34
2018-01-15T06:51:53.000Z,94533.86
2018-01-15T06:54:20.710Z,94524.69
2018-01-15T06:56:48.498Z,94529.30
2018-01-15T06:59:16.200Z,94529.79
2018-01-15T07:01:43.882Z,94533.86
2018-01-15T07:04:11.663Z,94527.19
2018-01-15T07:06:39.430Z,94529.41
2018-01-15T07:09:07.244Z,94526.34
2018-01-15T07:11:34.920Z,94530.14
2018-01-15T07:14:02.713Z,94527.27
2018-01-15T07:16:30.417Z,94527.42
2018-01-15T07:18:58.134Z,94528.28
2018-01-15T07:21:25.833Z,94533.55
2018-01-15T07:23:53.548Z,94535.73
2018-01-15T07:26:21.357Z,94541.80
2018-01-15T07:28:49.099Z,94528.30
2018-01-15T07:31:16.814Z,94532.91
2018-01-15T07:33:44.578Z,94529.74
2018-01-15T07:36:12.264Z,94534.32
2018-01-15T07:38:39.963Z,94535.81
2018-01-15T07:41:07.727Z,94536.41
2018-01-15T07:43:35.518Z,94544.67
2018-01-15T07:46:03.303Z,94541.80
2018-01-15T07:48:31.043Z,94546.00
2018-01-15T07:50:58.736Z,94546.30
2018-01-15T07:53:26.449Z,94545.31
2018-01-15T07:55:54.196Z,94545.89
2018-01-15T07:58:21.975Z,94543.66
2018-01-15T08:00:49.697Z,94539.00
2018-01-15T08:03:17.472Z,94537.03
2018-01-15T08:05:45.252Z,94540.80
2018-01-15T08:08:13.017Z,94539.89
2018-01-15T08:10:40.799Z,94540.61
2018-01-15T08:13:08.589Z,94538.93
2018-01-15T08:15:36.706Z,94540.38
2018-01-15T08:18:04.456Z,94547.48
2018-01-15T08:20:32.244Z,94544.84
2018-01-15T08:23:00.048Z,94537.70
2018-01-15T08:25:27.722Z,94541.09
2018-01-15T08:27:55.561Z,94537.27
2018-01-15T08:30:23.308Z,94535.02
2018-01-15T08:32:51.030Z,94542.76
2018-01-15T08:35:18.805Z,94536.41
2018-01-15T08:37:46.544Z,94533.67
2018-01-15T08:40:14.206Z,94535.71
2018-01-15T08:42:42.111Z,94534.80
2018-01-15T08:45:09.804Z,94540.16
2018-01-15T08:47:37.502Z,94537.98
2018-01-15T08:50:05.287Z,94532.66
2018-01-15T08:52:33.485Z,94533.31
2018-01-15T08:55:01.240Z,94526.34
2018-01-15T08:57:28.928Z,94535.21
2018-01-15T08:59:56.665Z,94530.80
2018-01-15T09:02:24.354Z,94525.69
2018-01-15T09:04:52.088Z,94533.44
2018-01-15T09:07:19.762Z,94527.73
2018-01-15T09:09:47.500Z,94534.97
2018-01-15T09:12:15.239Z,94531.83
2018-01-15T09:14:42.946Z,94540.36
2018-01-15T09:17:10.705Z,94538.77
2018-01-15T09:19:38.416Z,94537.34
2018-01-15T09:22:06.167Z,94541.97
2018-01-15T09:24:33.910Z,94535.00
2018-01-15T09:27:01.585Z,94534.97
2018-01-15T09:29:29.448Z,94541.40
2018-01-15T09:31:57.206Z,94540.89
2018-01-15T09:34:25.020Z,94541.11
2018-01-15T09:36:52.790Z,94541.77
2018-01-15T09:39:20.495Z,94541.07
2018-01-15T09:41:48.444Z,94536.22
2018-01-15T09:44:16.197Z,94533.88
2018-01-15T09:46:43.880Z,94538.59
2018-01-15T09:49:11.613Z,94537.39
2018-01-15T09:51:39.291Z,94536.91
2018-01-15T09:54:07.035Z,94536.70
2018-01-15T09:56:34.771Z,94530.02
2018-01-15T09:59:02.479Z,94530.13
2018-01-15T10:01:30.799Z,94524.62
2018-01-15T10:03:58.511Z,94522.20
2018-01-15T10:06:26.265Z,94522.17
2018-01-15T10:08:54.193Z,94517.86
2018-01-15T10:11:21.921Z,94520.60
2018-01-15T10:13:49.714Z,94513.55
2018-01-15T10:16:17.418Z,94513.75
2018-01-15T10:18:45.132Z,94510.53
2018-01-15T10:21:12.825Z,94513.94
2018-01-15T10:23:40.567Z,94511.81
2018-01-15T10:26:08.248Z,94503.66
2018-01-15T10:28:35.991Z,94495.05
2018-01-15T10:31:03.810Z,94492.00
2018-01-15T10:33:31.484Z,94489.50
2018-01-15T10:35:59.227Z,94488.06
2018-01-15T10:38:26.916Z,94480.39
2018-01-15T10:40:54.598Z,94480.55
2018-01-15T10:43:22.357Z,94476.83
2018-01-15T10:45:50.106Z,94475.63
2018-01-15T10:48:17.779Z,94473.48
2018-01-15T10:50:45.473Z,94459.36
2018-01-15T10:53:13.250Z,94460.59
2018-01-15T10:55:40.958Z,94460.23
2018-01-15T10:58:08.700Z,94456.89
2018-01-15T11:00:41.883Z,94453.61
2018-01-15T11:03:09.671Z,94446.27
2018-01-15T11:05:37.389Z,94445.58
2018-01-15T11:08:05.214Z,94437.41
2018-01-15T11:10:32.992Z,94424.20
2018-01-15T11:13:00.700Z,94426.20
2018-01-15T11:15:29.658Z,94418.30
2018-01-15T11:17:57.376Z,94418.81
2018-01-15T11:20:25.160Z,94411.61
2018-01-15T11:22:52.944Z,94412.64
2018-01-15T11:25:20.637Z,94413.78
2018-01-15T11:27:48.354Z,94408.77
2018-01-15T11:33:43.435Z,94400.59
2018-01-15T11:36:12.735Z,94390.73
2018-01-15T11:38:40.446Z,94385.93
2018-01-15T11:41:08.179Z,94378.25
2018-01-15T11:43:35.893Z,94374.63
2018-01-15T11:46:03.651Z,94373.11
2018-01-15T11:48:31.469Z,94365.20
2018-01-15T11:50:59.169Z,94365.73
2018-01-15T11:53:26.936Z,94361.19
2018-01-15T11:55:54.620Z,94353.74
2018-01-15T11:58:22.474Z,94349.48
2018-01-15T12:00:50.271Z,94346.32
2018-01-15T12:03:17.975Z,94338.49
2018-01-15T12:05:45.696Z,94335.28
2018-01-15T12:08:13.493Z,94334.62
2018-01-15T12:10:41.225Z,94336.31
2018-01-15T12:13:08.999Z,94334.08
2018-01-15T12:15:36.858Z,94326.65
2018-01-15T12:18:04.658Z,94323.98
2018-01-15T12:20:32.523Z,94321.91
2018-01-15T12:23:00.344Z,94314.64
2018-01-15T12:25:28.071Z,94312.24
2018-01-15T12:27:55.882Z,94311.27
2018-01-15T12:30:23.644Z,94302.25
2018-01-15T12:32:51.453Z,94309.77
2018-01-15T12:35:19.195Z,94297.05
2018-01-15T12:37:47.003Z,94293.74
2018-01-15T12:40:15.503Z,94293.85
2018-01-15T12:42:43.238Z,94290.87
2018-01-15T12:45:10.980Z,94290.80
2018-01-15T12:47:38.822Z,94287.34
2018-01-15T12:50:06.589Z,94275.91
2018-01-15T12:52:34.295Z,94276.09
2018-01-15T12:55:02.068Z,94273.83
2018-01-15T12:57:29.777Z,94267.95
2018-01-15T12:59:57.521Z,94264.99
2018-01-15T13:02:25.239Z,94260.11
2018-01-15T13:04:53.046Z,94257.47
2018-01-15T13:07:32.500Z,94253.30
2018-01-15T13:10:00.245Z,94253.30
2018-01-15T13:12:28.004Z,94251.22
2018-01-15T13:14:55.878Z,94251.42
2018-01-15T13:17:23.594Z,94245.73
2018-01-15T13:19:51.320Z,94244.91
2018-01-15T13:22:19.147Z,94241.58
2018-01-15T13:24:46.869Z,94239.86
2018-01-15T13:27:14.611Z,94240.26
2018-01-15T13:29:42.443Z,94236.70
2018-01-15T13:32:10.175Z,94226.65
2018-01-15T13:34:37.885Z,94224.73
2018-01-15T13:37:05.669Z,94221.08
2018-01-15T13:39:33.454Z,94217.66
2018-01-15T13:42:01.181Z,94210.36
2018-01-15T13:44:28.965Z,94212.92
2018-01-15T13:46:56.672Z,94210.48
2018-01-15T13:49:24.398Z,94199.36
2018-01-15T13:51:52.200Z,94205.77
2018-01-15T13:54:20.014Z,94203.36
2018-01-15T13:56:47.783Z,94202.27
2018-01-15T13:59:15.531Z,94196.98
2018-01-15T14:01:43.346Z,94201.63
2018-01-15T14:04:11.138Z,94195.03
2018-01-15T14:06:38.850Z,94189.43
2018-01-15T14:09:06.662Z,94181.04
2018-01-15T14:11:34.448Z,94180.55
2018-01-15T14:14:02.262Z,94178.55
2018-01-15T14:16:30.001Z,94183.18
2018-01-15T14:18:57.676Z,94180.38
2018-01-15T14:21:25.433Z,94182.31
2018-01-15T14:23:53.138Z,94173.42
2018-01-15T14:26:20.986Z,94175.58
2018-01-15T14:28:48.718Z,94172.77
2018-01-15T14:31:16.435Z,94179.99
2018-01-15T14:33:44.300Z,94172.03
2018-01-15T14:36:12.867Z,94170.04
2018-01-15T14:38:40.624Z,94164.37
2018-01-15T14:41:08.382Z,94161.48
2018-01-15T14:43:36.179Z,94155.95
2018-01-15T14:46:03.905Z,94155.23
2018-01-15T14:48:31.641Z,94151.41
2018-01-15T14:50:59.338Z,94152.05
2018-01-15T14:53:27.055Z,94150.28
2018-01-15T14:55:54.808Z,94151.09
2018-01-15T14:58:22.512Z,94144.84
2018-01-15T15:00:50.324Z,94147.89
2018-01-15T15:03:18.102Z,94136.98
2018-01-15T15:05:45.764Z,94134.05
2018-01-15T15:08:13.496Z,94136.29
2018-01-15T15:10:41.251Z,94137.77
2018-01-15T15:13:08.941Z,94133.97
2018-01-15T15:15:36.699Z,94131.41
2018-01-15T15:18:04.571Z,94135.18
2018-01-15T15:20:32.375Z,94137.26
2018-01-15T15:23:00.094Z,94130.30
2018-01-15T15:25:28.638Z,94132.89
2018-01-15T15:27:56.384Z,94122.81
2018-01-15T15:30:24.106Z,94127.88
2018-01-15T15:32:51.860Z,94128.83
2018-01-15T15:35:19.586Z,94122.83
2018-01-15T15:37:47.313Z,94118.63
2018-01-15T15:40:15.129Z,94118.23
2018-01-15T15:42:42.893Z,94119.17
2018-01-15T15:45:10.600Z,94116.30
2018-01-15T15:47:38.383Z,94112.30
2018-01-15T15:50:06.153Z,94114.77
2018-01-15T15:52:33.927Z,94103.28
2018-01-15T15:55:01.660Z,94108.94
2018-01-15T15:57:29.521Z,94099.67
2018-01-15T15:59:57.240Z,94099.12
2018-01-15T16:02:25.146Z,94102.23
2018-01-15T16:04:53.689Z,94100.08
2018-01-15T16:07:21.499Z,94095.03
2018-01-15T16:09:49.247Z,94097.31
2018-01-15T16:12:17.154Z,94092.28
2018-01-15T16:14:44.955Z,94089.81
2018-01-15T16:17:12.738Z,94083.56
2018-01-15T16:19:40.628Z,94087.15
2018-01-15T16:22:19.935Z,94080.44
2018-01-15T16:24:47.787Z,94079.22
2018-01-15T16:27:15.488Z,94079.98
2018-01-15T16:29:43.253Z,94081.45
2018-01-15T16:32:11.110Z,94078.50
2018-01-15T16:34:38.859Z,94079.35
2018-01-15T16:37:06.760Z,94076.40
2018-01-15T16:39:35.751Z,94070.13
2018-01-15T16:42:03.527Z,94065.09
2018-01-15T16:44:31.273Z,94063.87
2018-01-15T16:46:59.025Z,94055.92
2018-01-15T16:49:26.710Z,94053.55
2018-01-15T16:51:54.469Z,94053.53
2018-01-15T16:54:22.187Z,94046.69
2018-01-15T16:56:49.946Z,94045.21
2018-01-15T16:59:17.673Z,94041.34
2018-01-15T17:01:45.459Z,94033.30
2018-01-15T17:04:13.271Z,94034.88
2018-01-15T17:06:40.961Z,94037.38
2018-01-15T17:09:08.836Z,94028.78
2018-01-15T17:11:36.537Z,94027.50
2018-01-15T17:14:04.357Z,94016.38
2018-01-15T17:16:32.090Z,94010.63
2018-01-15T17:18:59.821Z,94005.13
2018-01-15T17:21:27.631Z,94002.35
2018-01-15T17:23:55.435Z,93996.59
2018-01-15T17:26:23.198Z,93996.93
2018-01-15T17:28:51.047Z,93992.96
2018-01-15T17:31:18.825Z,93992.63
2018-01-15T17:33:47.027Z,93981.55
2018-01-15T17:36:14.769Z,93980.02
2018-01-15T17:38:42.567Z,93978.81
2018-01-15T17:41:10.319Z,93977.94
2018-01-15T17:43:38.174Z,93986.94
2018-01-15T17:46:06.174Z,93992.47
2018-01-15T17:48:34.041Z,93979.37
2018-01-15T17:51:01.781Z,93981.20
2018-01-15T17:53:29.578Z,93982.50
2018-01-15T17:55:57.310Z,93972.94
2018-01-15T17:58:25.039Z,93966.57
2018-01-15T18:00:53.101Z,93959.58
2018-01-15T18:03:21.507Z,93957.63
2018-01-15T18:05:50.100Z,93960.40
2018-01-15T18:08:18.009Z,93954.61
2018-01-15T18:10:46.088Z,93954.47
2018-01-15T18:13:13.832Z,93942.18
2018-01-15T18:15:41.571Z,93942.59
2018-01-15T18:18:09.406Z,93943.09
2018-01-15T18:20:37.215Z,93945.83
2018-01-15T18:23:04.973Z,93939.71
2018-01-15T18:25:32.745Z,93941.10
2018-01-15T18:28:01.494Z,93933.06
2018-01-15T18:30:29.321Z,93929.64
2018-01-15T18:32:58.129Z,93930.81
2018-01-15T18:35:26.027Z,93932.89
2018-01-15T18:37:54.511Z,93928.02
2018-01-15T18:40:22.356Z,93921.04
2018-01-15T18:42:50.265Z,93920.52
2018-01-15T18:45:18.013Z,93918.97
2018-01-15T18:47:45.856Z,93914.42
2018-01-15T18:50:15.014Z,93912.57
2018-01-15T18:52:42.890Z,93904.94
2018-01-15T18:55:11.416Z,93908.14
2018-01-15T18:57:40.406Z,93901.30
2018-01-15T19:00:08.555Z,93895.63
2018-01-15T19:02:36.334Z,93887.95
2018-01-15T19:05:05.161Z,93879.27
2018-01-15T19:07:32.969Z,93883.33
2018-01-15T19:10:02.594Z,93874.07
2018-01-15T19:12:30.433Z,93871.70
2018-01-15T19:14:59.231Z,93874.98
2018-01-15T19:17:27.024Z,93864.30
2018-01-15T19:19:54.954Z,93870.59
2018-01-15T19:22:23.549Z,93870.27
2018-01-15T19:24:51.479Z,93860.85
2018-01-15T19:27:19.438Z,93858.78
2018-01-15T19:29:47.473Z,93855.69
2018-01-15T19:32:15.752Z,93842.39
2018-01-15T19:34:49.123Z,93832.50
2018-01-15T19:40:22.889Z,93828.67
2018-01-15T19:42:51.167Z,93833.47
2018-01-15T19:45:24.792Z,93824.56
2018-01-15T19:47:58.420Z,93815.33
2018-01-15T19:50:31.738Z,93807.00
2018-01-15T19:53:05.285Z,93812.94
2018-01-15T19:55:39.061Z,93810.09
2018-01-15T19:58:12.653Z,93808.28
2018-01-15T20:00:47.195Z,93806.72
2018-01-15T20:03:20.576Z,93804.16
2018-01-15T20:05:53.991Z,93799.74
2018-01-15T20:08:27.470Z,93790.14
2018-01-15T20:10:56.778Z,93793.78
2018-01-15T20:13:24.680Z,93789.22
2018-01-15T20:15:52.661Z,93783.05
2018-01-15T20:18:20.476Z,93786.19
2018-01-15T20:20:48.218Z,93786.77
2018-01-15T20:23:16.689Z,93788.77
2018-01-15T20:25:44.502Z,93777.94
2018-01-15T20:28:13.190Z,93765.31
2018-01-15T20:30:42.007Z,93765.62
2018-01-15T20:33:11.181Z,93768.41
2018-01-15T20:35:39.095Z,93771.16
2018-01-15T20:38:06.950Z,93764.52
2018-01-15T20:40:34.747Z,93753.33
2018-01-15T20:43:02.544Z,93758.34
2018-01-15T20:45:30.439Z,93759.33
2018-01-15T20:47:58.442Z,93761.35
2018-01-15T20:50:26.224Z,93760.80
2018-01-15T20:52:54.059Z,93750.03
2018-01-15T20:55:21.923Z,93758.16
2018-01-15T20:57:49.665Z,93759.61
2018-01-15T21:00:17.509Z,93746.36
2018-01-15T21:02:45.232Z,93742.75
2018-01-15T21:05:12.947Z,93739.38
2018-01-15T21:07:40.751Z,93736.04
2018-01-15T21:10:08.546Z,93734.47
2018-01-15T21:12:37.514Z,93723.92
2018-01-15T21:15:05.344Z,93718.66
2018-01-15T21:17:33.101Z,93718.13
2018-01-15T21:20:00.889Z,93719.89
2018-01-15T21:22:28.697Z,93719.91
2018-01-15T21:24:56.757Z,93713.92
2018-01-15T21:27:24.552Z,93706.56
2018-01-15T21:29:52.942Z,93706.30
2018-01-15T21:32:20.658Z,93713.63
2018-01-15T21:34:48.434Z,93705.91
2018-01-15T21:37:16.340Z,93704.24
2018-01-15T21:39:44.172Z,93697.23
2018-01-15T21:42:12.031Z,93682.49
2018-01-15T21:44:39.829Z,93677.41
2018-01-15T21:47:07.563Z,93677.22
2018-01-15T21:49:35.360Z,93663.59
2018-01-15T21:52:03.174Z,93655.54
2018-01-15T21:54:30.896Z,93654.49
2018-01-15T21:56:58.700Z,93647.20
2018-01-15T21:59:26.424Z,93638.30
2018-01-15T22:01:54.191Z,93637.58
2018-01-15T22:04:21.941Z,93632.73
2018-01-15T22:06:49.755Z,93629.89
2018-01-15T22:09:17.529Z,93628.23
2018-01-15T22:11:45.257Z,93621.48
2018-01-15T22:14:13.183Z,93622.35
2018-01-15T22:16:40.948Z,93619.74
2018-01-15T22:19:08.702Z,93615.90
2018-01-15T22:21:36.439Z,93607.48
2018-01-15T22:24:04.362Z,93606.21
2018-01-15T22:26:32.052Z,93594.86
2018-01-15T22:28:59.785Z,93586.75
2018-01-15T22:31:27.707Z,93577.61
2018-01-15T22:33:55.434Z,93571.16
2018-01-15T22:36:23.208Z,93563.59
2018-01-15T22:38:50.948Z,93566.94
2018-01-15T22:41:18.767Z,93558.84
2018-01-15T22:43:46.650Z,93555.64
2018-01-15T22:46:14.386Z,93548.25
2018-01-15T22:48:42.105Z,93547.22
2018-01-15T22:51:09.852Z,93549.45
2018-01-15T22:53:37.588Z,93545.41
2018-01-15T22:56:05.365Z,93545.48
2018-01-15T22:58:33.061Z,93534.73
2018-01-15T23:01:00.859Z,93520.10
2018-01-15T23:03:28.682Z,93522.09
2018-01-15T23:05:56.416Z,93517.48
2018-01-15T23:08:25.374Z,93511.12
2018-01-15T23:10:53.049Z,93502.20
2018-01-15T23:13:20.904Z,93496.24
2018-01-15T23:15:48.612Z,93484.47
2018-01-15T23:18:16.465Z,93485.75
2018-01-15T23:20:44.271Z,93473.47
2018-01-15T23:23:12.011Z,93468.48
2018-01-15T23:25:39.793Z,93468.87
2018-01-15T23:28:07.571Z,93466.58
2018-01-15T23:30:35.364Z,93466.86
2018-01-15T23:33:03.080Z,93463.13
2018-01-15T23:35:30.773Z,93461.24
2018-01-15T23:37:58.509Z,93446.69
2018-01-15T23:40:26.186Z,93442.16
2018-01-15T23:42:54.400Z,93438.73
2018-01-15T23:45:22.064Z,93433.48
2018-01-15T23:47:49.806Z,93433.33
2018-01-15T23:50:17.585Z,93430.94
2018-01-15T23:52:45.250Z,93434.75
2018-01-15T23:55:12.973Z,93428.79
2018-01-15T23:57:40.714Z,93424.38
